createdAt,value
2023-05-10T00:03:25.898Z,0.60
2023-05-10T00:08:30.909Z,0.43
2023-05-10T00:13:34.515Z,0.60
2023-05-10T00:18:38.139Z,0.60
2023-05-10T00:23:43.062Z,0.60
2023-05-10T00:28:46.640Z,0.67
2023-05-10T00:33:50.150Z,0.70
2023-05-10T00:38:55.145Z,0.90
2023-05-10T00:43:58.655Z,0.70
2023-05-10T00:49:02.433Z,0.80
2023-05-10T00:54:08.795Z,0.87
2023-05-10T00:59:12.647Z,1.13
2023-05-10T01:04:16.912Z,1.10
2023-05-10T01:09:22.318Z,1.07
2023-05-10T01:14:27.837Z,1.23
2023-05-10T01:19:35.764Z,1.57
2023-05-10T01:25:06.799Z,1.50
2023-05-10T01:30:39.974Z,1.50
2023-05-10T01:35:55.438Z,1.63
2023-05-10T01:41:12.793Z,1.50
2023-05-10T01:46:22.580Z,1.30
2023-05-10T01:51:31.803Z,1.60
2023-05-10T01:56:37.720Z,1.63
2023-05-10T02:01:42.768Z,1.60
2023-05-10T02:06:49.398Z,1.70
2023-05-10T02:11:53.353Z,1.97
2023-05-10T02:16:58.072Z,1.70
2023-05-10T02:22:03.942Z,1.40
2023-05-10T02:27:09.130Z,2.03
2023-05-10T02:32:14.469Z,1.63
2023-05-10T02:37:21.500Z,1.87
2023-05-10T02:42:28.561Z,1.30
2023-05-10T02:47:32.252Z,1.40
2023-05-10T02:52:43.196Z,0.73
2023-05-10T02:57:54.054Z,0.70
2023-05-10T03:02:58.041Z,0.60
2023-05-10T03:08:05.702Z,0.70
2023-05-10T03:13:17.130Z,1.20
2023-05-10T03:18:24.754Z,0.50
2023-05-10T03:23:37.434Z,0.63
2023-05-10T03:28:42.612Z,0.87
2023-05-10T03:33:50.214Z,0.60
2023-05-10T03:39:00.048Z,0.60
2023-05-10T03:44:04.620Z,0.63
2023-05-10T03:49:08.154Z,0.60
2023-05-10T03:54:15.788Z,0.60
2023-05-10T03:59:19.400Z,0.63
2023-05-10T04:04:24.040Z,0.70
2023-05-10T04:09:29.113Z,0.70
2023-05-10T04:14:32.614Z,1.00
2023-05-10T04:19:36.210Z,0.80
2023-05-10T04:24:41.095Z,1.00
2023-05-10T04:29:44.817Z,1.10
2023-05-10T04:34:48.968Z,1.20
2023-05-10T04:39:53.818Z,0.73
2023-05-10T04:44:57.337Z,1.07
2023-05-10T04:50:00.960Z,0.90
2023-05-10T04:55:08.378Z,0.80
2023-05-10T05:00:13.107Z,0.90
2023-05-10T05:05:16.720Z,1.27
2023-05-10T05:10:21.921Z,1.10
2023-05-10T05:15:25.582Z,1.37
2023-05-10T05:20:29.039Z,1.10
2023-05-10T05:25:33.977Z,1.67
2023-05-10T05:30:37.512Z,1.60
2023-05-10T05:35:41.050Z,1.70
2023-05-10T05:40:46.967Z,1.60
2023-05-10T05:45:50.806Z,1.50
2023-05-10T05:50:57.523Z,2.13
2023-05-10T05:56:02.520Z,1.60
2023-05-10T06:01:06.167Z,1.90
2023-05-10T06:06:09.719Z,1.53
2023-05-10T06:11:14.628Z,1.57
2023-05-10T06:16:18.728Z,1.43
2023-05-10T06:21:22.463Z,2.87
2023-05-10T06:26:27.393Z,1.80
2023-05-10T06:31:31.033Z,1.90
2023-05-10T06:36:34.581Z,1.87
2023-05-10T06:41:39.601Z,2.20
2023-05-10T06:46:43.408Z,2.20
2023-05-10T06:51:47.054Z,2.07
2023-05-10T06:56:51.918Z,1.73
2023-05-10T07:01:55.530Z,1.80
2023-05-10T07:06:59.108Z,1.60
2023-05-10T07:12:04.090Z,2.00
2023-05-10T07:17:07.648Z,1.77
2023-05-10T07:22:11.171Z,1.47
2023-05-10T07:27:16.106Z,1.33
2023-05-10T07:32:19.688Z,1.70
2023-05-10T07:37:23.213Z,2.53
2023-05-10T07:42:28.031Z,1.73
2023-05-10T07:47:31.702Z,1.90
2023-05-10T07:52:35.364Z,2.40
2023-05-10T07:57:40.422Z,2.50
2023-05-10T08:02:44.049Z,2.23
2023-05-10T08:07:48.050Z,2.30
2023-05-10T08:12:52.978Z,2.10
2023-05-10T08:17:56.491Z,1.90
2023-05-10T08:23:00.227Z,1.93
2023-05-10T08:28:05.218Z,2.23
2023-05-10T08:33:08.784Z,1.70
2023-05-10T08:38:13.589Z,1.67
2023-05-10T08:43:18.740Z,1.70
2023-05-10T08:48:24.845Z,2.47
2023-05-10T08:53:30.649Z,2.37
2023-05-10T08:58:35.576Z,2.37
2023-05-10T09:03:40.919Z,2.43
2023-05-10T09:08:45.404Z,1.80
2023-05-10T09:13:52.686Z,1.40
2023-05-10T09:18:56.261Z,1.70
2023-05-10T09:24:04.688Z,4.17
2023-05-10T09:29:09.574Z,1.30
2023-05-10T09:34:13.097Z,1.00
2023-05-10T09:39:17.025Z,0.50
2023-05-10T09:44:21.955Z,0.43
2023-05-10T09:49:25.564Z,0.50
2023-05-10T09:54:29.055Z,0.60
2023-05-10T09:59:37.071Z,1.03
2023-05-10T10:04:42.634Z,1.37
2023-05-10T10:09:46.714Z,1.27
2023-05-10T10:14:52.453Z,1.63
2023-05-10T10:19:57.518Z,1.70
2023-05-10T10:25:01.820Z,1.90
2023-05-10T10:30:17.516Z,2.83
2023-05-10T10:35:21.266Z,2.50
2023-05-10T10:40:29.587Z,1.83
2023-05-10T10:45:35.068Z,1.50
2023-05-10T10:50:47.862Z,2.83
2023-05-10T10:55:51.447Z,2.10
2023-05-10T11:01:12.445Z,1.60
2023-05-10T11:06:32.294Z,2.20
2023-05-10T11:11:37.150Z,2.27
2023-05-10T11:16:46.403Z,2.33
2023-05-10T11:21:51.151Z,2.20
2023-05-10T11:26:55.766Z,1.67
2023-05-10T11:32:01.744Z,2.03
2023-05-10T11:37:05.256Z,2.67
2023-05-10T11:42:10.378Z,1.73
2023-05-10T11:47:15.289Z,1.77
2023-05-10T11:52:21.527Z,1.73
2023-05-10T11:57:29.667Z,1.63
2023-05-10T12:02:34.747Z,2.90
2023-05-10T12:07:38.422Z,1.50
2023-05-10T12:12:43.829Z,1.60
2023-05-10T12:17:49.666Z,1.43
2023-05-10T12:22:54.714Z,1.07
2023-05-10T12:27:59.230Z,1.00
2023-05-10T12:33:09.153Z,0.80
2023-05-10T12:38:31.602Z,0.60
2023-05-10T12:43:36.775Z,0.90
2023-05-10T12:48:43.049Z,0.70
2023-05-10T12:53:49.595Z,0.67
2023-05-10T12:58:53.379Z,0.70
2023-05-10T13:03:58.225Z,0.70
2023-05-10T13:09:01.738Z,0.70
2023-05-10T13:14:05.292Z,0.80
2023-05-10T13:19:10.484Z,0.70
2023-05-10T13:24:15.236Z,0.70
2023-05-10T13:29:19.172Z,0.70
2023-05-10T13:34:25.159Z,0.60
2023-05-10T13:39:30.660Z,0.60
2023-05-10T13:44:34.743Z,0.57
2023-05-10T13:49:39.593Z,0.50
2023-05-10T13:54:43.376Z,0.60
2023-05-10T13:59:48.118Z,0.57
2023-05-10T14:04:52.956Z,0.60
2023-05-10T14:09:56.483Z,0.50
2023-05-10T14:15:00.144Z,1.50
2023-05-10T14:20:05.855Z,0.50
2023-05-10T14:25:10.088Z,0.30
2023-05-10T14:30:14.431Z,0.40
2023-05-10T14:35:19.902Z,0.30
2023-05-10T14:40:23.711Z,0.60
2023-05-10T14:45:27.438Z,0.33
2023-05-10T14:50:36.884Z,0.40
2023-05-10T14:55:41.044Z,0.47
2023-05-10T15:00:45.010Z,0.40
2023-05-10T15:05:50.378Z,0.40
2023-05-10T15:10:56.332Z,0.30
2023-05-10T15:15:59.906Z,0.20
2023-05-10T15:21:04.874Z,0.40
2023-05-10T15:26:08.760Z,0.40
2023-05-10T15:31:12.499Z,0.40
2023-05-10T15:36:18.662Z,0.50
2023-05-10T15:41:22.156Z,0.50
2023-05-10T15:46:25.877Z,0.70
2023-05-10T15:51:30.831Z,0.70
2023-05-10T15:56:34.817Z,0.50
2023-05-10T16:01:38.415Z,0.50
2023-05-10T16:06:43.259Z,1.50
2023-05-10T16:11:46.769Z,1.83
2023-05-10T16:16:50.400Z,1.43
2023-05-10T16:21:56.056Z,1.53
2023-05-10T16:26:59.693Z,1.37
2023-05-10T16:32:03.566Z,1.43
2023-05-10T16:37:08.503Z,1.30
2023-05-10T16:42:11.998Z,0.80
2023-05-10T16:47:15.524Z,2.73
2023-05-10T16:52:20.355Z,0.70
2023-05-10T16:57:24.142Z,0.70
2023-05-10T17:02:27.777Z,0.60
2023-05-10T17:07:32.797Z,0.70
2023-05-10T17:12:36.288Z,0.53
2023-05-10T17:17:39.950Z,0.50
2023-05-10T17:22:44.845Z,0.40
2023-05-10T17:27:48.430Z,0.60
2023-05-10T17:32:51.972Z,0.73
2023-05-10T17:37:56.921Z,0.60
2023-05-10T17:43:00.430Z,0.43
2023-05-10T17:48:04.646Z,0.50
2023-05-10T17:53:09.571Z,0.50
2023-05-10T17:58:13.552Z,0.37
2023-05-10T18:03:17.067Z,0.70
2023-05-10T18:08:22.950Z,1.40
2023-05-10T18:13:26.517Z,0.80
2023-05-10T18:18:30.221Z,0.87
2023-05-10T18:23:35.312Z,0.60
2023-05-10T18:28:38.881Z,0.40
2023-05-10T18:33:42.402Z,0.73
2023-05-10T18:38:47.645Z,0.60
2023-05-10T18:43:51.239Z,0.77
2023-05-10T18:48:55.601Z,1.00
2023-05-10T18:54:00.508Z,0.43
2023-05-10T18:59:04.006Z,0.70
2023-05-10T19:04:08.437Z,0.60
2023-05-10T19:09:13.279Z,0.60
2023-05-10T19:14:16.771Z,0.67
2023-05-10T19:19:20.864Z,0.80
2023-05-10T19:24:25.976Z,0.70
2023-05-10T19:29:29.787Z,0.77
2023-05-10T19:34:33.397Z,0.70
2023-05-10T19:39:38.364Z,0.50
2023-05-10T19:44:42.550Z,1.00
2023-05-10T19:49:46.134Z,0.60
2023-05-10T19:54:51.508Z,1.10
2023-05-10T19:59:55.002Z,0.80
2023-05-10T20:04:58.483Z,0.60
2023-05-10T20:10:03.423Z,0.90
2023-05-10T20:15:08.707Z,1.83
2023-05-10T20:20:13.196Z,0.80
2023-05-10T20:25:19.604Z,2.03
2023-05-10T20:30:24.013Z,1.40
2023-05-10T20:35:27.566Z,1.20
2023-05-10T20:40:33.686Z,1.30
2023-05-10T20:45:38.484Z,1.10
2023-05-10T20:50:42.009Z,1.30
2023-05-10T20:55:46.906Z,1.10
2023-05-10T21:00:50.406Z,1.40
2023-05-10T21:05:54.014Z,1.40
2023-05-10T21:10:58.910Z,1.00
2023-05-10T21:16:02.441Z,1.50
2023-05-10T21:21:06.078Z,1.10
2023-05-10T21:26:10.942Z,1.20
2023-05-10T21:31:14.455Z,0.90
2023-05-10T21:36:18.172Z,1.50
2023-05-10T21:41:23.046Z,1.30
2023-05-10T21:46:26.595Z,1.17
2023-05-10T21:51:30.298Z,1.53
2023-05-10T21:56:35.194Z,1.20
2023-05-10T22:01:38.776Z,1.40
2023-05-10T22:06:42.312Z,1.47
2023-05-10T22:11:48.558Z,2.00
2023-05-10T22:16:52.263Z,0.80
2023-05-10T22:21:56.024Z,0.63
2023-05-10T22:27:00.990Z,0.57
2023-05-10T22:32:06.314Z,0.57
2023-05-10T22:37:09.901Z,0.70
2023-05-10T22:42:14.738Z,0.70
2023-05-10T22:47:18.281Z,1.77
2023-05-10T22:52:21.837Z,1.10
2023-05-10T22:57:27.302Z,1.17
2023-05-10T23:02:30.834Z,1.37
2023-05-10T23:07:35.532Z,2.10
2023-05-10T23:12:40.410Z,1.70
2023-05-10T23:17:44.098Z,1.70
2023-05-10T23:22:47.736Z,1.77
2023-05-10T23:27:52.576Z,2.47
2023-05-10T23:32:56.118Z,3.30
2023-05-10T23:37:59.682Z,2.13
2023-05-10T23:43:04.578Z,1.10
2023-05-10T23:48:08.122Z,0.80
2023-05-10T23:53:11.701Z,0.60
2023-05-10T23:58:16.667Z,0.40
